Time;durP1;ratioP1;P1;durP2;ratioP2;P2;SDS_P1;SDS_P2;PMS_P1;PMS_P2;Temp;Humidity;BMP_temperature;BMP_pressure;BME280_temperature;BME280_humidity;BME280_pressure;Samples;Min_cycle;Max_cycle;Signal;HPM_P1;HPM_P2
2022/10/10 00:01:17;;;;;;;1.08;1.05;;;;;;;9.90;68.68;94174.16;5089808;28;20024;-33
2022/10/10 00:03:43;;;;;;;2.35;2.25;;;;;;;9.72;69.97;94169.44;5088837;28;20410;-33
2022/10/10 00:06:09;;;;;;;2.60;2.50;;;;;;;9.72;70.04;94172.19;5089405;28;20065;-33
2022/10/10 00:08:35;;;;;;;1.95;1.85;;;;;;;9.84;69.91;94165.25;5089051;28;20036;-33
2022/10/10 00:11:01;;;;;;;0.63;0.63;;;;;;;9.87;69.39;94171.72;5089583;28;20020;-33
2022/10/10 00:13:27;;;;;;;0.98;0.98;;;;;;;9.71;70.00;94172.72;5089816;28;20077;-33
2022/10/10 00:15:52;;;;;;;1.95;1.83;;;;;;;9.67;69.64;94173.03;5088580;28;20023;-33
2022/10/10 00:18:18;;;;;;;1.23;1.10;;;;;;;9.67;69.47;94169.53;5089368;28;20070;-33
2022/10/10 00:20:43;;;;;;;0.57;0.57;;;;;;;9.76;69.13;94169.13;5088768;28;20028;-33
2022/10/10 00:23:08;;;;;;;1.73;1.58;;;;;;;9.65;68.96;94172.81;5089163;28;20051;-33
2022/10/10 00:25:35;;;;;;;2.33;2.22;;;;;;;9.62;68.94;94171.09;5088814;28;20031;-33
2022/10/10 00:28:02;;;;;;;5.88;2.65;;;;;;;9.40;69.40;94171.44;5089162;28;20085;-33
2022/10/10 00:30:27;;;;;;;4.18;1.98;;;;;;;9.45;69.16;94172.63;5088874;28;20039;-33
2022/10/10 00:32:53;;;;;;;1.95;1.85;;;;;;;9.45;69.01;94170.63;5090825;28;20016;-33
2022/10/10 00:35:18;;;;;;;1.63;1.52;;;;;;;9.39;69.23;94169.22;5092906;28;20488;-33
2022/10/10 00:37:43;;;;;;;1.98;1.85;;;;;;;9.46;68.83;94171.38;5092653;28;20572;-33
2022/10/10 00:40:10;;;;;;;0.60;0.60;;;;;;;9.21;68.50;94180.97;5092754;28;20032;-33
2022/10/10 00:42:35;;;;;;;2.05;1.95;;;;;;;9.22;68.23;94176.97;5075134;28;20491;-33
2022/10/10 00:45:35;;;;;;;1.88;1.77;;;;;;;9.29;67.86;94176.38;5092448;28;20032;-33
2022/10/10 00:48:07;;;;;;;1.10;1.10;;;;;;;9.18;68.87;94178.00;5092184;28;20027;-33
2022/10/10 00:50:35;;;;;;;1.27;1.27;;;;;;;9.18;69.02;94178.00;5091971;28;20020;-33
2022/10/10 00:53:03;;;;;;;0.60;0.60;;;;;;;9.12;69.43;94171.84;5091991;28;20063;-33
2022/10/10 00:55:28;;;;;;;1.42;1.33;;;;;;;8.88;70.21;94158.13;5092799;28;20085;-33
2022/10/10 00:57:54;;;;;;;0.98;0.88;;;;;;;9.13;69.24;94169.84;5074500;28;20017;-33
2022/10/10 01:00:19;;;;;;;0.57;0.57;;;;;;;9.06;69.56;94176.69;5092752;28;20030;-33
2022/10/10 01:02:44;;;;;;;5.78;3.00;;;;;;;8.99;70.10;94174.50;5092078;28;20442;-33
2022/10/10 01:05:10;;;;;;;2.00;1.90;;;;;;;8.98;69.75;94173.03;5092025;28;20028;-33
2022/10/10 01:07:36;;;;;;;1.45;1.45;;;;;;;8.93;69.94;94173.09;5092120;28;20051;-33
2022/10/10 01:10:07;;;;;;;1.25;1.17;;;;;;;8.97;69.76;94185.31;5074067;28;20016;-33
2022/10/10 01:13:02;;;;;;;1.50;1.48;;;;;;;8.97;69.52;94188.06;5075300;28;20492;-33
2022/10/10 01:15:41;;;;;;;1.20;1.10;;;;;;;8.92;69.17;94196.41;5069949;28;20103;-33
2022/10/10 01:18:27;;;;;;;0.98;0.98;;;;;;;8.84;69.61;94190.75;5084775;28;20103;-33
2022/10/10 01:21:28;;;;;;;1.20;1.20;;;;;;;8.69;69.89;94195.94;5073974;28;20036;-33
2022/10/10 01:24:17;;;;;;;2.38;2.22;;;;;;;8.58;70.12;94196.06;5057615;28;20044;-33
2022/10/10 01:26:55;;;;;;;0.73;0.70;;;;;;;8.61;69.68;94200.53;5091315;28;20107;-33
2022/10/10 01:29:20;;;;;;;0.60;0.60;;;;;;;8.49;69.72;94204.66;5092161;28;20577;-33
2022/10/10 01:31:47;;;;;;;1.38;1.38;;;;;;;8.66;69.01;94198.97;5091600;28;20085;-33
2022/10/10 01:34:26;;;;;;;1.17;1.02;;;;;;;8.74;68.40;94206.13;5079421;28;20027;-33
2022/10/10 01:37:16;;;;;;;1.63;1.52;;;;;;;8.70;68.65;94202.19;5077676;28;20059;-33
2022/10/10 01:39:48;;;;;;;1.17;1.17;;;;;;;8.58;68.98;94209.81;5077102;28;20027;-33
2022/10/10 01:42:19;;;;;;;1.48;0.85;;;;;;;8.63;68.72;94205.50;5091499;28;20058;-33
2022/10/10 01:44:45;;;;;;;2.15;1.88;;;;;;;8.49;69.13;94212.19;5080789;28;20088;-33
2022/10/10 01:47:12;;;;;;;0.80;0.80;;;;;;;8.42;69.65;94199.75;5091274;28;20043;-33
2022/10/10 01:49:37;;;;;;;1.85;1.60;;;;;;;8.44;69.70;94199.22;5091050;28;20389;-33
2022/10/10 01:52:27;;;;;;;2.30;2.20;;;;;;;8.49;69.12;94201.91;5078923;28;20039;-33
2022/10/10 01:55:22;;;;;;;2.58;1.83;;;;;;;8.43;68.62;94208.72;5091115;28;20024;-33
2022/10/10 01:58:10;;;;;;;2.15;1.42;;;;;;;8.23;69.29;94196.13;5091350;28;20026;-33
2022/10/10 02:00:53;;;;;;;1.58;1.50;;;;;;;8.18;68.85;94188.72;5050349;28;20040;-33
2022/10/10 02:03:25;;;;;;;2.67;2.05;;;;;;;8.21;68.86;94204.16;5075235;28;20036;-33
2022/10/10 02:06:04;;;;;;;1.60;1.58;;;;;;;7.81;69.63;94197.53;5076126;28;20063;-33
2022/10/10 02:09:01;;;;;;;2.13;2.03;;;;;;;7.89;70.65;94197.72;5075255;28;20676;-33
2022/10/10 02:11:27;;;;;;;0.57;0.57;;;;;;;8.22;69.12;94197.41;5082009;28;20067;-33
2022/10/10 02:13:59;;;;;;;0.88;0.88;;;;;;;8.13;69.22;94195.75;5090628;28;20076;-33
2022/10/10 02:16:31;;;;;;;1.10;1.05;;;;;;;8.13;69.14;94195.75;5072921;28;20024;-33
2022/10/10 02:18:58;;;;;;;1.30;1.30;;;;;;;7.99;69.69;94187.91;5090433;28;20078;-33
2022/10/10 02:21:24;;;;;;;1.58;1.48;;;;;;;7.93;69.46;94187.94;5073236;28;20079;-33
2022/10/10 02:23:52;;;;;;;1.25;1.15;;;;;;;7.95;69.62;94192.94;5073117;28;20495;-33
2022/10/10 02:26:18;;;;;;;0.65;0.65;;;;;;;7.86;69.78;94196.00;5089782;28;20024;-33
2022/10/10 02:28:54;;;;;;;0.60;0.60;;;;;;;7.96;69.32;94199.91;5075294;28;20563;-33
2022/10/10 02:31:28;;;;;;;0.90;0.90;;;;;;;8.08;68.87;94201.28;5090824;28;20240;-33
2022/10/10 02:33:58;;;;;;;1.63;1.33;;;;;;;7.92;69.59;94204.94;5076375;28;20031;-33
2022/10/10 02:36:24;;;;;;;2.03;1.90;;;;;;;7.84;69.64;94210.25;5074325;28;20032;-33
2022/10/10 02:38:51;;;;;;;1.55;1.45;;;;;;;7.72;69.73;94208.84;5077397;28;20020;-33
2022/10/10 02:41:18;;;;;;;1.13;1.13;;;;;;;7.81;69.80;94216.03;5073977;28;20514;-33
2022/10/10 02:43:43;;;;;;;1.02;1.02;;;;;;;7.79;69.38;94208.31;5072735;28;20024;-33
2022/10/10 02:46:11;;;;;;;1.95;1.15;;;;;;;7.88;68.78;94208.00;5072384;28;20575;-33
2022/10/10 02:48:37;;;;;;;1.35;1.10;;;;;;;7.83;69.33;94208.03;5089857;28;20028;-33
2022/10/10 02:51:03;;;;;;;0.88;0.88;;;;;;;7.85;69.10;94208.25;5085393;28;20039;-33
2022/10/10 02:53:28;;;;;;;0.60;0.60;;;;;;;7.82;68.85;94201.03;5090449;28;20563;-33
2022/10/10 02:55:53;;;;;;;0.90;0.90;;;;;;;7.71;69.16;94201.84;5089128;28;20044;-33
2022/10/10 02:58:19;;;;;;;0.50;0.50;;;;;;;7.52;69.86;94201.75;5090369;28;20465;-33
2022/10/10 03:00:44;;;;;;;1.20;1.20;;;;;;;7.38;70.58;94202.88;5090010;28;20411;-33
2022/10/10 03:03:10;;;;;;;2.17;1.60;;;;;;;7.33;70.87;94197.41;5090100;28;20495;-33
2022/10/10 03:05:35;;;;;;;2.55;2.35;;;;;;;7.40;71.11;94205.09;5086562;28;20039;-33
2022/10/10 03:08:01;;;;;;;3.20;2.50;;;;;;;7.45;71.94;94205.06;5089816;28;20051;-33
2022/10/10 03:10:26;;;;;;;4.50;4.15;;;;;;;7.68;71.36;94202.16;5089629;28;20423;-33
2022/10/10 03:12:51;;;;;;;3.33;2.67;;;;;;;7.65;71.09;94207.41;5089749;28;20016;-33
2022/10/10 03:15:17;;;;;;;3.97;3.45;;;;;;;7.71;71.01;94203.88;5089764;28;20051;-33
2022/10/10 03:17:42;;;;;;;6.38;4.68;;;;;;;7.65;70.68;94193.66;5088941;28;20024;-33
2022/10/10 03:20:08;;;;;;;5.05;4.43;;;;;;;7.61;70.73;94215.19;5090219;28;20103;-33
2022/10/10 03:22:34;;;;;;;5.03;4.13;;;;;;;7.56;70.75;94217.97;5089469;28;20476;-33
2022/10/10 03:24:59;;;;;;;2.30;2.10;;;;;;;7.57;70.53;94211.22;5089939;28;20419;-33
2022/10/10 03:27:25;;;;;;;2.50;2.40;;;;;;;7.59;70.14;94206.72;5089742;28;20036;-33
2022/10/10 03:29:51;;;;;;;1.60;1.50;;;;;;;7.42;70.49;94211.59;5089512;28;20032;-33
2022/10/10 03:32:16;;;;;;;2.63;2.42;;;;;;;7.50;70.59;94209.78;5089816;28;20032;-33
2022/10/10 03:34:42;;;;;;;2.83;2.63;;;;;;;7.42;70.55;94208.84;5089830;28;20028;-33
2022/10/10 03:37:07;;;;;;;1.95;1.85;;;;;;;7.32;70.73;94210.38;5090028;28;20032;-33
2022/10/10 03:39:33;;;;;;;3.25;2.50;;;;;;;7.34;70.96;94207.88;5072690;28;20084;-33
2022/10/10 03:41:58;;;;;;;3.65;2.05;;;;;;;7.37;70.36;94201.38;5089554;28;20028;-33
2022/10/10 03:44:23;;;;;;;2.78;2.63;;;;;;;7.39;70.50;94206.34;5089790;28;20082;-33
2022/10/10 03:46:49;;;;;;;1.25;1.20;;;;;;;7.49;70.49;94202.78;5085345;28;20130;-33
2022/10/10 03:49:14;;;;;;;2.85;2.58;;;;;;;7.35;70.74;94198.38;5090177;28;20464;-33
2022/10/10 03:51:40;;;;;;;3.03;2.80;;;;;;;7.30;71.22;94206.66;5074493;28;20487;-33
2022/10/10 03:54:05;;;;;;;2.47;1.77;;;;;;;7.40;70.36;94203.09;5089110;28;20106;-33
2022/10/10 03:56:31;;;;;;;5.05;2.13;;;;;;;7.36;70.62;94199.84;5089808;28;20070;-33
2022/10/10 03:58:59;;;;;;;6.43;5.93;;;;;;;7.23;71.67;94205.22;5089066;28;20545;-33
2022/10/10 04:01:26;;;;;;;13.20;6.20;;;;;;;7.19;72.10;94199.22;5089439;28;20111;-33
2022/10/10 04:03:51;;;;;;;9.60;6.45;;;;;;;7.13;72.36;94198.53;5089824;28;20552;-33
2022/10/10 04:06:17;;;;;;;4.22;3.60;;;;;;;6.98;72.90;94203.59;5089356;28;20028;-33
2022/10/10 04:08:43;;;;;;;10.90;7.20;;;;;;;6.94;73.88;94197.63;5091896;28;20109;-33
2022/10/10 04:11:08;;;;;;;6.63;6.00;;;;;;;6.82;74.96;94201.69;5093654;28;20051;-33
2022/10/10 04:13:34;;;;;;;6.70;6.18;;;;;;;6.81;74.68;94189.97;5093563;28;20024;-33
2022/10/10 04:16:00;;;;;;;5.07;4.57;;;;;;;6.92;74.44;94199.38;5093123;28;20073;-33
2022/10/10 04:18:25;;;;;;;5.07;4.78;;;;;;;6.96;74.47;94203.34;5092734;28;20533;-33
2022/10/10 04:20:51;;;;;;;4.30;4.00;;;;;;;6.94;74.42;94203.13;5092973;28;20024;-33
2022/10/10 04:23:17;;;;;;;2.45;2.25;;;;;;;7.09;73.61;94220.00;5093253;28;20030;-33
2022/10/10 04:25:43;;;;;;;3.72;3.10;;;;;;;7.00;73.34;94201.09;5092888;28;20031;-33
2022/10/10 04:28:13;;;;;;;4.40;4.00;;;;;;;7.15;72.84;94211.72;5093014;28;20024;-33
2022/10/10 04:30:39;;;;;;;2.05;1.95;;;;;;;6.93;72.88;94198.88;5092857;28;20024;-33
2022/10/10 04:33:04;;;;;;;2.47;2.28;;;;;;;7.06;72.76;94210.03;5075350;28;20039;-33
2022/10/10 04:35:30;;;;;;;2.47;2.38;;;;;;;7.01;72.88;94213.56;5093434;28;20035;-33
2022/10/10 04:37:55;;;;;;;2.70;2.50;;;;;;;6.91;73.19;94211.63;5092878;28;20028;-33
2022/10/10 04:40:21;;;;;;;6.07;4.47;;;;;;;7.06;73.07;94214.78;5092383;28;20492;-33
2022/10/10 04:42:46;;;;;;;3.92;3.60;;;;;;;7.06;73.51;94223.03;5092516;28;20024;-33
2022/10/10 04:45:12;;;;;;;8.00;5.38;;;;;;;7.06;73.85;94210.03;5093137;28;20427;-33
2022/10/10 04:47:37;;;;;;;4.90;4.50;;;;;;;7.08;74.55;94226.75;5092229;28;20093;-33
2022/10/10 04:50:03;;;;;;;4.28;3.88;;;;;;;7.18;74.09;94216.97;5092463;28;20020;-33
2022/10/10 04:52:29;;;;;;;7.57;5.78;;;;;;;7.07;74.26;94217.03;5092218;28;20032;-33
2022/10/10 04:54:54;;;;;;;6.82;5.38;;;;;;;7.02;74.02;94230.78;5092649;28;20024;-33
2022/10/10 04:57:20;;;;;;;5.13;4.72;;;;;;;7.03;74.08;94233.03;5092575;28;20039;-33
2022/10/10 04:59:45;;;;;;;4.45;3.83;;;;;;;6.99;74.50;94229.06;5076902;28;20020;-33
2022/10/10 05:02:11;;;;;;;3.90;3.30;;;;;;;6.88;73.80;94227.88;5086062;28;20020;-33
2022/10/10 05:04:36;;;;;;;8.40;4.00;;;;;;;7.04;73.27;94231.75;5091948;28;20392;-33
2022/10/10 05:07:01;;;;;;;3.45;3.28;;;;;;;7.05;72.72;94232.50;5092543;28;20615;-34
2022/10/10 05:09:27;;;;;;;3.15;2.95;;;;;;;6.96;73.07;94239.03;5091996;28;20581;-33
2022/10/10 05:11:52;;;;;;;6.13;5.63;;;;;;;6.93;73.92;94240.03;5092144;28;20035;-33
2022/10/10 05:14:18;;;;;;;6.07;5.55;;;;;;;6.78;74.38;94245.84;5092014;28;20043;-33
2022/10/10 05:16:43;;;;;;;3.78;3.53;;;;;;;7.00;74.17;94244.25;5091603;28;20020;-33
2022/10/10 05:19:09;;;;;;;2.60;2.40;;;;;;;7.11;73.87;94239.47;5090660;28;20165;-33
2022/10/10 05:21:34;;;;;;;3.92;3.33;;;;;;;7.20;73.44;94244.66;5092044;28;20032;-33
2022/10/10 05:23:59;;;;;;;5.03;4.60;;;;;;;7.26;73.37;94245.38;5091741;28;20040;-33
2022/10/10 05:26:25;;;;;;;5.55;2.80;;;;;;;7.37;73.04;94250.06;5070050;28;20409;-33
2022/10/10 05:28:51;;;;;;;6.55;3.60;;;;;;;7.30;73.54;94261.56;5090887;28;20480;-33
2022/10/10 05:31:16;;;;;;;3.47;3.17;;;;;;;7.40;73.45;94252.56;5091643;28;20032;-33
2022/10/10 05:33:42;;;;;;;7.03;6.45;;;;;;;7.46;73.21;94256.00;5091933;28;20023;-33
2022/10/10 05:36:10;;;;;;;6.05;4.30;;;;;;;7.51;72.91;94249.72;5091746;28;20020;-33
2022/10/10 05:38:36;;;;;;;2.10;2.00;;;;;;;7.52;73.63;94239.47;5083688;28;20055;-33
2022/10/10 05:41:02;;;;;;;4.07;2.90;;;;;;;7.51;73.66;94257.97;5074457;28;20020;-33
2022/10/10 05:43:27;;;;;;;3.53;3.20;;;;;;;7.62;73.31;94252.38;5091677;28;20495;-33
2022/10/10 05:45:53;;;;;;;13.00;9.35;;;;;;;7.72;72.96;94252.09;5090639;28;20035;-33
2022/10/10 05:48:18;;;;;;;10.52;9.63;;;;;;;7.69;73.40;94261.38;5091545;28;20476;-33
2022/10/10 05:50:49;;;;;;;12.13;7.05;;;;;;;7.79;74.11;94259.78;5091499;28;20097;-33
2022/10/10 05:53:15;;;;;;;2.22;2.08;;;;;;;7.92;73.58;94260.69;5087019;28;20615;-33
2022/10/10 05:55:40;;;;;;;3.20;3.00;;;;;;;8.06;73.91;94258.81;5090620;28;20055;-33
2022/10/10 05:58:06;;;;;;;3.58;3.22;;;;;;;8.35;73.58;94269.09;5091206;28;20031;-33
2022/10/10 06:00:32;;;;;;;3.22;2.92;;;;;;;8.64;73.21;94271.03;5073727;28;20442;-33
2022/10/10 06:02:57;;;;;;;3.08;2.65;;;;;;;8.99;71.60;94243.38;5091439;28;20407;-33
2022/10/10 06:05:23;;;;;;;4.38;4.03;;;;;;;9.69;70.27;94269.00;5091102;28;20088;-33
2022/10/10 06:07:49;;;;;;;4.43;2.60;;;;;;;10.18;68.88;94264.03;5090579;28;20047;-33
2022/10/10 06:10:14;;;;;;;3.03;2.83;;;;;;;10.76;67.88;94261.28;5091433;28;20097;-34
2022/10/10 06:12:40;;;;;;;2.72;2.53;;;;;;;11.46;65.11;94260.34;5090836;28;20024;-33
2022/10/10 06:15:06;;;;;;;1.77;1.52;;;;;;;12.02;62.70;94262.66;5090567;28;20055;-33
2022/10/10 06:17:31;;;;;;;2.05;1.90;;;;;;;12.54;61.58;94256.13;5091148;28;20145;-34
2022/10/10 06:19:57;;;;;;;4.40;4.03;;;;;;;12.81;61.09;94260.19;5087336;28;20035;-34
2022/10/10 06:22:23;;;;;;;5.70;5.28;;;;;;;12.93;60.15;94250.28;5090604;28;20036;-34
2022/10/10 06:24:48;;;;;;;5.22;4.07;;;;;;;13.40;59.98;94258.34;5090241;28;20024;-34
2022/10/10 06:27:14;;;;;;;4.00;3.65;;;;;;;13.85;59.18;94260.56;5090278;28;20028;-34
2022/10/10 06:29:39;;;;;;;5.43;3.63;;;;;;;14.01;58.92;94265.59;5072462;28;20503;-34
2022/10/10 06:32:05;;;;;;;6.20;4.10;;;;;;;14.10;58.89;94267.84;5072701;28;20035;-34
2022/10/10 06:34:30;;;;;;;4.80;2.85;;;;;;;14.31;59.22;94267.72;5090714;28;20032;-33
2022/10/10 06:36:56;;;;;;;2.78;2.03;;;;;;;14.49;58.87;94268.69;5090710;28;20042;-34
2022/10/10 06:39:21;;;;;;;2.75;2.55;;;;;;;14.55;58.82;94266.44;5090387;28;20020;-34
2022/10/10 06:41:50;;;;;;;1.70;1.60;;;;;;;14.81;58.80;94255.69;5089786;28;20480;-34
2022/10/10 06:44:16;;;;;;;2.67;2.33;;;;;;;15.12;58.38;94261.94;5090556;28;20162;-34
2022/10/10 06:46:42;;;;;;;1.17;1.08;;;;;;;15.49;58.33;94257.63;5087522;28;20043;-34
2022/10/10 06:49:08;;;;;;;0.60;0.60;;;;;;;15.80;57.77;94259.00;5090765;28;20023;-34
2022/10/10 06:51:34;;;;;;;1.20;0.95;;;;;;;15.87;58.39;94252.66;5089705;28;20020;-34
2022/10/10 06:53:59;;;;;;;4.97;1.63;;;;;;;15.75;57.85;94246.75;5087269;28;20035;-34
2022/10/10 06:56:25;;;;;;;1.13;1.13;;;;;;;15.96;57.87;94260.41;5089729;28;20032;-34
2022/10/10 06:58:51;;;;;;;2.70;2.45;;;;;;;15.94;58.39;94258.19;5090034;28;20043;-34
2022/10/10 07:01:18;;;;;;;1.40;1.30;;;;;;;16.08;58.11;94263.50;5089870;28;20024;-33
2022/10/10 07:03:44;;;;;;;2.00;1.90;;;;;;;16.23;56.97;94269.72;5090027;28;20019;-33
2022/10/10 07:06:10;;;;;;;1.20;1.20;;;;;;;16.52;57.58;94268.06;5090523;28;20024;-33
2022/10/10 07:08:36;;;;;;;0.60;0.60;;;;;;;16.93;56.22;94261.06;5089815;28;20099;-33
2022/10/10 07:11:02;;;;;;;0.85;0.85;;;;;;;17.35;54.78;94255.44;5089059;28;20020;-34
2022/10/10 07:13:28;;;;;;;0.45;0.45;;;;;;;17.49;53.16;94264.25;5089544;28;20416;-33
2022/10/10 07:15:53;;;;;;;1.08;1.05;;;;;;;17.52;53.04;94266.66;5090319;28;20027;-33
2022/10/10 07:18:19;;;;;;;0.82;0.82;;;;;;;17.38;53.83;94268.25;5089536;28;20454;-33
2022/10/10 07:20:45;;;;;;;1.17;1.10;;;;;;;17.13;53.28;94267.59;5084098;28;20028;-33
2022/10/10 07:23:11;;;;;;;0.90;0.90;;;;;;;17.28;52.88;94250.69;5080453;28;20103;-33
2022/10/10 07:25:38;;;;;;;0.28;0.28;;;;;;;17.44;53.11;94257.59;5086228;28;20078;-33
2022/10/10 07:28:05;;;;;;;0.60;0.60;;;;;;;17.76;52.64;94263.03;5089515;28;20491;-34
2022/10/10 07:30:31;;;;;;;0.70;0.70;;;;;;;17.78;51.06;94265.97;5078595;28;20590;-33
2022/10/10 07:32:56;;;;;;;1.40;1.30;;;;;;;17.85;51.30;94265.16;5089332;28;20032;-34
2022/10/10 07:35:22;;;;;;;1.40;1.40;;;;;;;18.02;50.14;94267.91;5090369;28;20046;-34
2022/10/10 07:37:49;;;;;;;0.88;0.88;;;;;;;18.12;50.00;94268.72;5089407;28;20051;-33
2022/10/10 07:40:15;;;;;;;0.50;0.50;;;;;;;18.12;50.91;94270.78;5072359;28;20057;-33
2022/10/10 07:42:41;;;;;;;0.50;0.50;;;;;;;18.20;49.94;94265.81;5092662;28;20146;-34
2022/10/10 07:45:08;;;;;;;0.40;0.40;;;;;;;18.45;50.01;94266.41;5092927;28;20109;-34
2022/10/10 07:47:34;;;;;;;2.00;0.85;;;;;;;18.59;48.57;94261.94;5093416;28;20028;-34
2022/10/10 07:49:59;;;;;;;0.63;0.63;;;;;;;18.63;49.40;94270.63;5093728;28;20028;-34
2022/10/10 07:52:25;;;;;;;1.25;1.25;;;;;;;18.68;48.39;94266.09;5093765;28;20439;-34
2022/10/10 07:54:50;;;;;;;0.73;0.73;;;;;;;18.59;48.62;94270.34;5093154;28;20172;-34
2022/10/10 07:57:16;;;;;;;1.05;1.05;;;;;;;18.80;48.71;94269.81;5093169;28;20046;-33
2022/10/10 07:59:44;;;;;;;1.35;1.27;;;;;;;18.83;48.02;94277.06;5093279;28;20080;-34
2022/10/10 08:02:10;;;;;;;1.10;1.10;;;;;;;18.67;47.92;94273.00;5092984;28;20408;-34
2022/10/10 08:04:35;;;;;;;0.30;0.30;;;;;;;18.67;47.62;94284.94;5093000;28;20030;-33
2022/10/10 08:07:00;;;;;;;0.45;0.45;;;;;;;18.70;47.42;94266.25;5088300;28;20035;-34
2022/10/10 08:09:26;;;;;;;1.08;0.98;;;;;;;18.81;47.69;94279.69;5093055;28;20044;-34
2022/10/10 08:11:51;;;;;;;0.40;0.40;;;;;;;18.79;47.58;94271.16;5092903;28;20032;-33
2022/10/10 08:14:17;;;;;;;0.65;0.50;;;;;;;19.06;49.45;94274.63;5092493;28;20032;-34
2022/10/10 08:16:43;;;;;;;1.13;1.02;;;;;;;19.28;48.14;94270.69;5093109;28;20020;-34
2022/10/10 08:19:08;;;;;;;1.83;0.93;;;;;;;19.59;46.91;94273.72;5092465;28;20384;-34
2022/10/10 08:21:35;;;;;;;0.77;0.77;;;;;;;19.50;46.44;94263.22;5093311;28;20035;-34
2022/10/10 08:24:00;;;;;;;1.60;1.50;;;;;;;19.54;46.52;94278.28;5092912;28;20028;-34
2022/10/10 08:26:26;;;;;;;0.30;0.30;;;;;;;19.70;46.10;94273.13;5092552;28;20055;-34
2022/10/10 08:28:51;;;;;;;0.95;0.60;;;;;;;19.82;45.41;94267.66;5092568;28;20028;-35
2022/10/10 08:31:18;;;;;;;9.93;1.95;;;;;;;20.02;46.35;94267.06;5076328;28;20032;-34
2022/10/10 08:33:44;;;;;;;1.40;1.30;;;;;;;20.11;44.85;94271.94;5092410;28;20024;-34
2022/10/10 08:36:22;;;;;;;1.33;1.23;;;;;;;20.08;45.13;94273.13;5092618;28;20476;-34
2022/10/10 08:38:48;;;;;;;0.80;0.80;;;;;;;19.92;45.69;94269.16;5092376;28;20036;-33
2022/10/10 08:41:40;;;;;;;0.40;0.40;;;;;;;20.01;46.56;94271.19;5093037;28;20050;-34
2022/10/10 08:44:21;;;;;;;0.40;0.40;;;;;;;20.19;45.81;94264.09;5092220;28;20656;-34
2022/10/10 08:46:51;;;;;;;0.45;0.45;;;;;;;20.51;45.74;94271.28;5074461;28;20085;-34
2022/10/10 08:49:22;;;;;;;0.52;0.52;;;;;;;20.49;43.77;94265.53;5074990;28;20024;-34
2022/10/10 08:51:53;;;;;;;0.88;0.77;;;;;;;20.59;44.30;94259.91;5091896;28;20070;-34
2022/10/10 08:54:21;;;;;;;2.33;0.82;;;;;;;20.52;44.07;94266.41;5091621;28;20058;-34
2022/10/10 08:56:47;;;;;;;1.27;1.23;;;;;;;20.61;43.99;94272.00;5075315;28;20116;-34
2022/10/10 08:59:21;;;;;;;0.30;0.30;;;;;;;20.73;44.26;94264.41;5092369;28;20032;-34
2022/10/10 09:01:47;;;;;;;1.30;1.23;;;;;;;20.82;43.03;94271.31;5081060;28;20127;-34
2022/10/10 09:04:15;;;;;;;1.40;1.30;;;;;;;20.71;43.16;94271.97;5077161;28;20032;-34
2022/10/10 09:06:54;;;;;;;3.22;1.50;;;;;;;20.74;43.36;94274.31;5092592;28;20044;-34
2022/10/10 09:09:22;;;;;;;0.40;0.40;;;;;;;20.70;43.83;94276.84;5092223;28;20044;-34
2022/10/10 09:12:00;;;;;;;0.60;0.60;;;;;;;20.70;44.14;94288.06;5092231;28;20035;-33
2022/10/10 09:14:34;;;;;;;0.82;0.82;;;;;;;20.65;43.68;94280.69;5089170;28;20054;-34
2022/10/10 09:17:33;;;;;;;1.25;1.15;;;;;;;20.23;43.64;94288.91;5089371;28;20085;-34
2022/10/10 09:20:05;;;;;;;0.88;0.85;;;;;;;20.48;44.34;94282.97;5076258;28;20080;-33
2022/10/10 09:22:34;;;;;;;1.13;1.08;;;;;;;20.42;42.59;94295.22;5092099;28;20032;-33
2022/10/10 09:25:30;;;;;;;0.50;0.50;;;;;;;19.91;44.99;94289.34;5077175;28;20039;-33
2022/10/10 09:28:32;;;;;;;0.60;0.60;;;;;;;19.84;43.75;94296.56;5065285;28;20040;-33
2022/10/10 09:31:00;;;;;;;0.35;0.30;;;;;;;19.86;44.65;94287.59;5091835;28;20063;-34
2022/10/10 09:33:30;;;;;;;0.65;0.65;;;;;;;19.84;44.65;94293.06;5091628;28;20024;-34
2022/10/10 09:35:56;;;;;;;0.38;0.38;;;;;;;19.59;44.54;94296.13;5092142;28;20458;-34
2022/10/10 09:38:31;;;;;;;0.30;0.30;;;;;;;19.56;45.80;94295.22;5091299;28;20028;-33
2022/10/10 09:41:00;;;;;;;0.52;0.52;;;;;;;19.69;45.11;94294.06;5091068;28;20595;-33
2022/10/10 09:43:30;;;;;;;0.65;0.65;;;;;;;19.77;45.12;94296.72;5087022;28;20028;-33
2022/10/10 09:45:55;;;;;;;0.93;0.93;;;;;;;19.89;44.54;94297.59;5091174;28;20034;-34
2022/10/10 09:48:40;;;;;;;0.90;0.70;;;;;;;20.05;44.79;94299.53;5091067;28;20107;-34
2022/10/10 09:51:11;;;;;;;0.73;0.73;;;;;;;20.27;43.75;94297.63;5084918;28;20458;-34
2022/10/10 09:53:37;;;;;;;0.57;0.57;;;;;;;20.28;44.02;94294.22;5072772;28;20024;-34
2022/10/10 09:56:04;;;;;;;0.82;0.82;;;;;;;20.45;44.17;94301.72;5091002;28;20024;-34
2022/10/10 09:58:37;;;;;;;1.25;1.17;;;;;;;20.45;43.85;94301.72;5091049;28;20039;-34
2022/10/10 10:01:15;;;;;;;1.02;0.95;;;;;;;20.55;44.02;94299.63;5075953;28;20169;-34
2022/10/10 10:03:41;;;;;;;0.50;0.50;;;;;;;20.61;43.63;94291.66;5091026;28;20038;-34
2022/10/10 10:06:11;;;;;;;0.25;0.25;;;;;;;20.57;42.89;94296.97;5075903;28;20024;-34
2022/10/10 10:08:37;;;;;;;1.13;0.85;;;;;;;20.86;42.22;94288.44;5090326;28;20058;-34
2022/10/10 10:11:03;;;;;;;0.40;0.40;;;;;;;21.08;42.55;94290.75;5091123;28;20019;-34
2022/10/10 10:13:35;;;;;;;1.08;1.08;;;;;;;21.02;41.89;94292.38;5072709;28;20043;-34
2022/10/10 10:16:10;;;;;;;0.70;0.70;;;;;;;20.79;41.81;94284.47;5074535;28;20192;-34
2022/10/10 10:18:46;;;;;;;0.88;0.88;;;;;;;20.52;42.90;94298.00;5094580;28;20031;-34
2022/10/10 10:21:11;;;;;;;1.23;0.75;;;;;;;20.46;45.18;94285.63;5079105;28;20490;-34
2022/10/10 10:23:43;;;;;;;1.52;1.10;;;;;;;20.66;43.35;94287.06;5090511;28;20111;-34
2022/10/10 10:26:23;;;;;;;0.40;0.40;;;;;;;20.93;43.64;94279.84;5073931;28;20024;-34
2022/10/10 10:28:50;;;;;;;2.80;2.42;;;;;;;21.05;42.34;94286.31;5090282;28;20031;-34
2022/10/10 10:31:48;;;;;;;1.80;1.08;;;;;;;21.15;41.69;94283.47;5090876;28;20073;-35
2022/10/10 10:34:44;;;;;;;0.27;0.27;;;;;;;21.03;42.91;94274.94;5035901;28;20040;-34
2022/10/10 10:37:20;;;;;;;1.33;0.95;;;;;;;21.02;41.84;94279.09;5084257;28;20027;-34
2022/10/10 10:40:03;;;;;;;1.10;0.95;;;;;;;21.12;42.34;94274.19;5088640;28;20492;-34
2022/10/10 10:42:37;;;;;;;1.00;0.88;;;;;;;21.00;42.03;94266.97;5073642;28;20431;-34
2022/10/10 10:45:22;;;;;;;1.35;1.25;;;;;;;21.15;42.33;94272.25;5070517;28;20032;-34
2022/10/10 10:48:06;;;;;;;0.80;0.80;;;;;;;21.20;42.28;94257.16;5074914;28;20507;-34
2022/10/10 10:51:06;;;;;;;1.33;0.88;;;;;;;21.18;41.88;94262.59;5090457;28;20081;-34
2022/10/10 10:54:09;;;;;;;1.17;1.15;;;;;;;21.18;42.05;94268.22;5087006;28;20160;-34
2022/10/10 10:56:41;;;;;;;0.47;0.47;;;;;;;21.25;42.15;94261.69;5039399;28;20085;-34
2022/10/10 10:59:32;;;;;;;0.70;0.70;;;;;;;21.46;41.92;94261.69;5078012;28;20468;-34
2022/10/10 11:02:07;;;;;;;1.92;1.13;;;;;;;21.66;41.36;94257.41;5089896;28;20024;-34
2022/10/10 11:05:03;;;;;;;0.73;0.73;;;;;;;21.81;40.86;94254.19;5090516;28;20093;-34
2022/10/10 11:07:56;;;;;;;0.95;0.80;;;;;;;21.75;41.14;94251.00;5089979;28;20036;-34
2022/10/10 11:10:48;;;;;;;0.40;0.40;;;;;;;21.68;40.70;94251.94;5084127;28;20047;-34
2022/10/10 11:13:25;;;;;;;0.52;0.45;;;;;;;21.40;40.36;94238.06;5090136;28;20039;-34
2022/10/10 11:16:09;;;;;;;0.47;0.47;;;;;;;;;;5054933;28;20027;-33
2022/10/10 11:18:44;;;;;;;1.60;0.75;;;;;;;21.21;40.99;94244.56;5089630;28;20027;-33
2022/10/10 11:21:14;;;;;;;0.98;0.93;;;;;;;20.76;43.29;94237.22;5086804;28;20047;-34
2022/10/10 11:23:51;;;;;;;0.98;0.85;;;;;;;20.51;42.88;94242.50;5089677;28;20169;-34
2022/10/10 11:26:22;;;;;;;0.32;0.32;;;;;;;20.52;42.70;94238.34;5071827;28;20036;-34
2022/10/10 11:29:09;;;;;;;0.70;0.70;;;;;;;20.34;44.01;94246.97;5075583;28;20450;-34
2022/10/10 11:31:38;;;;;;;0.45;0.45;;;;;;;20.33;42.90;94248.31;5086782;28;20024;-34
2022/10/10 11:34:08;;;;;;;0.32;0.32;;;;;;;20.27;43.12;94244.34;5088392;28;20024;-34
2022/10/10 11:36:36;;;;;;;0.40;0.40;;;;;;;19.90;43.27;94246.59;5089657;28;20024;-33
2022/10/10 11:39:15;;;;;;;0.80;0.80;;;;;;;19.86;43.92;94242.75;5071573;28;20034;-34
2022/10/10 11:41:45;;;;;;;0.55;0.55;;;;;;;19.92;43.43;94241.13;5075400;28;20486;-34
2022/10/10 11:44:30;;;;;;;0.68;0.68;;;;;;;19.94;44.31;94232.88;5070037;28;20102;-34
2022/10/10 11:47:16;;;;;;;1.45;1.30;;;;;;;19.93;44.49;94213.81;5071167;28;20123;-34
2022/10/10 11:49:53;;;;;;;1.83;0.52;;;;;;;19.89;43.54;94219.88;5088981;28;20032;-33
2022/10/10 11:52:28;;;;;;;5.15;2.70;;;;;;;19.91;43.40;94222.09;5071975;28;20083;-34